createdAt,value
2018-07-16T00:01:13.621Z,4.80
2018-07-16T00:03:44.013Z,7.40
2018-07-16T00:06:14.056Z,8.50
2018-07-16T00:08:43.646Z,7.30
2018-07-16T00:11:13.257Z,8.17
2018-07-16T00:13:42.864Z,7.67
2018-07-16T00:16:12.495Z,8.57
2018-07-16T00:18:43.003Z,7.00
2018-07-16T00:21:12.727Z,6.10
2018-07-16T00:23:42.459Z,7.90
2018-07-16T00:26:12.013Z,6.30
2018-07-16T00:28:41.612Z,10.20
2018-07-16T00:31:11.213Z,9.33
2018-07-16T00:33:42.540Z,5.77
2018-07-16T00:36:12.123Z,5.87
2018-07-16T00:38:42.026Z,5.83
2018-07-16T00:41:12.554Z,9.00
2018-07-16T00:43:42.136Z,8.43
2018-07-16T00:46:11.745Z,8.03
2018-07-16T00:48:42.675Z,7.67
2018-07-16T00:51:12.332Z,7.83
2018-07-16T00:53:41.910Z,6.23
2018-07-16T00:56:11.539Z,7.23
2018-07-16T00:58:41.295Z,8.50
2018-07-16T01:01:11.032Z,7.50
2018-07-16T01:03:42.412Z,6.67
2018-07-16T01:06:12.007Z,8.17
2018-07-16T01:08:41.960Z,12.93
2018-07-16T01:11:11.549Z,8.53
2018-07-16T01:13:41.555Z,8.90
2018-07-16T01:16:11.147Z,9.20
2018-07-16T01:18:42.242Z,9.83
2018-07-16T01:21:11.807Z,10.90
2018-07-16T01:23:41.376Z,8.30
2018-07-16T01:26:13.774Z,7.80
2018-07-16T01:28:43.465Z,11.70
2018-07-16T01:31:13.005Z,10.03
2018-07-16T01:33:43.663Z,10.30
2018-07-16T01:36:13.385Z,9.37
2018-07-16T01:38:43.126Z,8.37
2018-07-16T01:41:12.753Z,5.73
2018-07-16T01:43:42.349Z,11.07
2018-07-16T01:46:11.982Z,7.67
2018-07-16T01:48:43.230Z,6.73
2018-07-16T01:51:12.823Z,5.13
2018-07-16T01:53:42.478Z,10.07
2018-07-16T01:56:12.027Z,7.00
2018-07-16T01:58:41.795Z,7.23
2018-07-16T02:01:11.098Z,7.23
2018-07-16T02:03:42.554Z,7.50
2018-07-16T02:06:11.779Z,5.83
2018-07-16T02:08:41.949Z,8.13
2018-07-16T02:11:11.588Z,5.40
2018-07-16T02:13:41.357Z,7.37
2018-07-16T02:16:10.927Z,7.20
2018-07-16T02:18:42.072Z,6.17
2018-07-16T02:21:11.638Z,6.60
2018-07-16T02:23:40.910Z,7.13
2018-07-16T02:26:10.469Z,16.03
2018-07-16T02:28:40.449Z,7.00
2018-07-16T02:31:11.581Z,6.53
2018-07-16T02:33:43.106Z,6.33
2018-07-16T02:36:12.661Z,6.10
2018-07-16T02:38:42.310Z,8.57
2018-07-16T02:41:11.887Z,9.33
2018-07-16T02:43:41.474Z,7.90
2018-07-16T02:46:11.099Z,7.63
2018-07-16T02:48:42.176Z,5.97
2018-07-16T02:51:12.315Z,9.40
2018-07-16T02:53:41.924Z,10.73
2018-07-16T02:56:11.522Z,6.57
2018-07-16T02:58:41.312Z,6.90
2018-07-16T03:01:11.237Z,9.70
2018-07-16T03:03:42.173Z,7.73
2018-07-16T03:06:11.786Z,6.43
2018-07-16T03:08:41.578Z,6.07
2018-07-16T03:11:11.230Z,6.47
2018-07-16T03:13:41.028Z,8.87
2018-07-16T03:16:10.642Z,8.00
2018-07-16T03:18:41.842Z,9.47
2018-07-16T03:21:11.467Z,8.60
2018-07-16T03:23:41.285Z,7.40
2018-07-16T03:26:10.891Z,8.10
2018-07-16T03:28:40.897Z,7.70
2018-07-16T03:31:10.503Z,8.23
2018-07-16T03:33:41.727Z,7.87
2018-07-16T03:36:12.221Z,8.77
2018-07-16T03:38:41.796Z,11.40
2018-07-16T03:41:11.454Z,15.40
2018-07-16T03:43:41.423Z,14.47
2018-07-16T03:46:11.086Z,14.57
2018-07-16T03:48:42.034Z,21.90
2018-07-16T03:51:11.766Z,23.27
2018-07-16T03:53:41.374Z,20.13
2018-07-16T03:56:11.292Z,17.27
2018-07-16T03:58:41.392Z,16.30
2018-07-16T04:01:11.038Z,17.00
2018-07-16T04:03:42.314Z,16.27
2018-07-16T04:06:11.981Z,16.00
2018-07-16T04:08:41.956Z,14.80
2018-07-16T04:11:11.576Z,16.33
2018-07-16T04:13:41.279Z,19.77
2018-07-16T04:16:10.905Z,14.77
2018-07-16T04:18:42.753Z,13.63
2018-07-16T04:21:12.494Z,14.17
2018-07-16T04:23:42.051Z,21.20
2018-07-16T04:26:11.882Z,16.27
2018-07-16T04:28:41.566Z,14.77
2018-07-16T04:31:11.287Z,12.80
2018-07-16T04:33:41.897Z,14.47
2018-07-16T04:36:11.323Z,14.47
2018-07-16T04:38:41.016Z,13.07
2018-07-16T04:41:10.845Z,11.23
2018-07-16T04:43:40.545Z,11.97
2018-07-16T04:46:10.470Z,12.40
2018-07-16T04:48:41.400Z,10.03
2018-07-16T04:51:11.393Z,12.77
2018-07-16T04:53:41.170Z,11.83
2018-07-16T04:56:11.600Z,10.57
2018-07-16T04:58:41.288Z,10.27
2018-07-16T05:01:11.660Z,11.00
2018-07-16T05:03:41.813Z,10.73
2018-07-16T05:06:11.885Z,14.13
2018-07-16T05:08:41.591Z,9.80
2018-07-16T05:11:12.033Z,11.57
2018-07-16T05:13:41.624Z,10.07
2018-07-16T05:16:12.453Z,10.87
2018-07-16T05:18:42.814Z,9.60
2018-07-16T05:21:12.681Z,11.07
2018-07-16T05:23:42.376Z,10.73
2018-07-16T05:26:13.081Z,9.67
2018-07-16T05:28:42.690Z,12.80
2018-07-16T05:31:13.149Z,12.13
2018-07-16T05:33:44.058Z,8.70
2018-07-16T05:36:14.028Z,8.60
2018-07-16T05:38:43.609Z,10.07
2018-07-16T05:41:13.655Z,8.83
2018-07-16T05:43:43.274Z,9.00
2018-07-16T05:46:13.837Z,10.60
2018-07-16T05:48:43.940Z,9.70
2018-07-16T05:51:14.182Z,10.90
2018-07-16T05:53:43.807Z,13.20
2018-07-16T05:56:14.341Z,9.33
2018-07-16T05:58:43.932Z,8.63
2018-07-16T06:01:14.028Z,8.30
2018-07-16T06:03:44.389Z,8.27
2018-07-16T06:06:15.108Z,9.17
2018-07-16T06:08:44.766Z,8.13
2018-07-16T06:11:15.152Z,10.37
2018-07-16T06:13:44.803Z,7.30
2018-07-16T06:16:15.281Z,7.50
2018-07-16T06:18:45.081Z,9.00
2018-07-16T06:23:55.298Z,8.50
2018-07-16T06:26:24.925Z,8.20
2018-07-16T06:28:54.477Z,7.33
2018-07-16T06:31:24.510Z,8.00
2018-07-16T06:33:54.146Z,7.00
2018-07-16T06:36:23.771Z,8.23
2018-07-16T06:38:53.416Z,6.10
2018-07-16T06:41:23.341Z,6.13
2018-07-16T06:43:52.632Z,7.40
2018-07-16T06:46:22.259Z,6.40
2018-07-16T06:48:51.824Z,5.70
2018-07-16T06:51:21.711Z,6.67
2018-07-16T06:53:51.415Z,6.97
2018-07-16T06:56:21.014Z,5.53
2018-07-16T06:58:50.572Z,6.13
2018-07-16T07:01:20.372Z,6.77
2018-07-16T07:03:50.022Z,6.67
2018-07-16T07:06:20.414Z,5.83
2018-07-16T07:08:50.013Z,7.20
2018-07-16T07:11:19.620Z,5.83
2018-07-16T07:13:49.228Z,8.07
2018-07-16T07:16:19.133Z,6.80
2018-07-16T07:18:48.714Z,5.40
2018-07-16T07:21:19.525Z,6.10
2018-07-16T07:23:49.220Z,5.93
2018-07-16T07:26:19.089Z,8.90
2018-07-16T07:28:48.706Z,5.70
2018-07-16T07:31:19.262Z,6.07
2018-07-16T07:33:48.933Z,6.23
2018-07-16T07:36:20.506Z,5.53
2018-07-16T07:38:50.129Z,5.53
2018-07-16T07:41:19.983Z,4.30
2018-07-16T07:43:49.556Z,4.53
2018-07-16T07:46:20.084Z,5.40
2018-07-16T07:48:49.793Z,5.60
2018-07-16T07:51:21.245Z,6.73
2018-07-16T07:53:50.929Z,4.23
2018-07-16T07:56:21.118Z,4.37
2018-07-16T07:58:50.752Z,6.40
2018-07-16T08:01:20.862Z,4.50
2018-07-16T08:03:50.465Z,4.47
2018-07-16T08:06:21.621Z,3.70
2018-07-16T08:08:51.221Z,4.23
2018-07-16T08:11:21.336Z,3.40
2018-07-16T08:13:51.064Z,3.40
2018-07-16T08:16:21.658Z,3.73
2018-07-16T08:18:51.314Z,8.20
2018-07-16T08:21:22.711Z,4.00
2018-07-16T08:23:52.333Z,3.70
2018-07-16T08:26:22.379Z,4.80
2018-07-16T08:28:52.093Z,5.70
2018-07-16T08:31:22.548Z,3.67
2018-07-16T08:33:52.204Z,5.27
2018-07-16T08:36:23.429Z,3.20
2018-07-16T08:38:53.111Z,5.43
2018-07-16T08:41:23.293Z,3.90
2018-07-16T08:43:52.969Z,3.53
2018-07-16T08:46:23.677Z,4.03
2018-07-16T08:48:53.220Z,5.40
2018-07-16T08:51:24.610Z,3.77
2018-07-16T08:53:54.225Z,3.73
2018-07-16T08:56:23.841Z,5.07
2018-07-16T08:58:53.105Z,3.90
2018-07-16T09:01:24.039Z,5.70
2018-07-16T09:03:53.606Z,7.13
2018-07-16T09:06:25.003Z,4.60
2018-07-16T09:08:54.677Z,3.63
2018-07-16T09:11:24.698Z,3.80
2018-07-16T09:13:54.312Z,3.23
2018-07-16T09:16:24.490Z,2.90
2018-07-16T09:18:54.124Z,5.80
2018-07-16T09:21:25.355Z,4.37
2018-07-16T09:23:55.067Z,3.00
2018-07-16T09:26:25.391Z,2.83
2018-07-16T09:28:54.972Z,5.07
2018-07-16T09:31:25.328Z,2.97
2018-07-16T09:33:54.912Z,3.53
2018-07-16T09:36:25.562Z,7.20
2018-07-16T09:38:55.270Z,4.37
2018-07-16T09:41:25.745Z,5.77
2018-07-16T09:43:55.349Z,4.17
2018-07-16T09:46:26.120Z,3.90
2018-07-16T09:48:55.719Z,3.63
2018-07-16T09:51:26.315Z,4.83
2018-07-16T09:53:55.898Z,3.10
2018-07-16T09:56:26.309Z,2.57
2018-07-16T09:58:55.864Z,2.67
2018-07-16T10:01:31.498Z,4.53
2018-07-16T10:04:01.257Z,4.63
2018-07-16T10:06:30.848Z,3.20
2018-07-16T10:09:00.395Z,4.60
2018-07-16T10:11:30.065Z,2.63
2018-07-16T10:13:59.712Z,2.90
2018-07-16T10:16:29.340Z,2.60
2018-07-16T10:18:58.904Z,5.00
2018-07-16T10:21:28.886Z,2.43
2018-07-16T10:23:58.451Z,3.27
2018-07-16T10:26:29.036Z,2.60
2018-07-16T10:28:58.618Z,4.17
2018-07-16T10:31:29.271Z,3.50
2018-07-16T10:33:58.894Z,2.27
2018-07-16T10:36:28.570Z,2.40
2018-07-16T10:38:58.141Z,3.00
2018-07-16T10:41:28.869Z,3.10
2018-07-16T10:43:58.546Z,2.57
2018-07-16T10:46:29.603Z,2.10
2018-07-16T10:48:59.375Z,2.37
2018-07-16T10:51:29.636Z,5.20
2018-07-16T10:53:59.256Z,2.10
2018-07-16T10:56:29.685Z,2.20
2018-07-16T10:58:59.395Z,2.17
2018-07-16T11:01:30.332Z,2.13
2018-07-16T11:04:00.011Z,3.80
2018-07-16T11:06:30.595Z,3.70
2018-07-16T11:09:00.223Z,2.37
2018-07-16T11:11:30.765Z,1.80
2018-07-16T11:14:00.397Z,2.57
2018-07-16T11:16:30.666Z,3.43
2018-07-16T11:19:00.445Z,5.30
2018-07-16T11:21:31.221Z,6.37
2018-07-16T11:24:00.522Z,2.20
2018-07-16T11:26:31.148Z,3.53
2018-07-16T11:29:00.775Z,4.57
2018-07-16T11:31:31.741Z,8.37
2018-07-16T11:34:01.347Z,2.63
2018-07-16T11:36:31.605Z,3.53
2018-07-16T11:39:01.204Z,4.80
2018-07-16T11:41:31.897Z,2.40
2018-07-16T11:44:01.474Z,5.20
2018-07-16T11:46:32.050Z,4.80
2018-07-16T11:49:01.587Z,3.90
2018-07-16T11:51:31.772Z,2.40
2018-07-16T11:54:01.361Z,2.20
2018-07-16T11:56:31.797Z,3.60
2018-07-16T11:59:01.441Z,6.47
2018-07-16T12:01:31.640Z,2.13
2018-07-16T12:04:01.252Z,2.57
2018-07-16T12:06:31.903Z,2.83
2018-07-16T12:09:01.512Z,4.37
2018-07-16T12:11:32.165Z,2.40
2018-07-16T12:14:01.891Z,3.90
2018-07-16T12:16:32.500Z,3.60
2018-07-16T12:19:02.082Z,2.87
2018-07-16T12:21:32.745Z,4.60
2018-07-16T12:24:02.332Z,2.20
2018-07-16T12:26:32.478Z,2.43
2018-07-16T12:29:02.111Z,2.83
2018-07-16T12:31:32.088Z,2.93
2018-07-16T12:34:01.723Z,3.70
2018-07-16T12:36:32.162Z,2.30
2018-07-16T12:39:01.763Z,3.30
2018-07-16T12:41:31.870Z,2.40
2018-07-16T12:44:01.477Z,2.53
2018-07-16T12:46:31.436Z,3.10
2018-07-16T12:49:01.237Z,3.93
2018-07-16T12:51:30.852Z,3.97
2018-07-16T12:54:00.401Z,2.20
2018-07-16T12:56:30.111Z,2.73
2018-07-16T12:58:59.725Z,4.17
2018-07-16T13:01:29.305Z,2.80
2018-07-16T13:03:58.886Z,2.10
2018-07-16T13:06:28.461Z,2.57
2018-07-16T13:08:58.124Z,2.73
2018-07-16T13:11:27.742Z,3.17
2018-07-16T13:13:57.360Z,1.98
2018-07-16T13:16:26.934Z,2.30
2018-07-16T13:18:56.537Z,2.87
2018-07-16T13:21:26.295Z,2.20
2018-07-16T13:23:55.986Z,4.45
2018-07-16T13:26:25.610Z,2.10
2018-07-16T13:28:55.193Z,5.40
2018-07-16T13:31:24.829Z,3.15
2018-07-16T13:33:54.387Z,2.25
2018-07-16T13:36:24.821Z,2.30
2018-07-16T13:38:54.154Z,1.95
2018-07-16T13:41:23.726Z,1.87
2018-07-16T13:43:53.323Z,3.67
2018-07-16T13:46:22.637Z,2.55
2018-07-16T13:48:52.188Z,3.10
2018-07-16T13:51:22.440Z,3.00
2018-07-16T13:53:52.083Z,2.65
2018-07-16T13:56:21.677Z,2.20
2018-07-16T13:58:51.327Z,3.37
2018-07-16T14:01:21.189Z,2.00
2018-07-16T14:03:50.851Z,2.00
2018-07-16T14:06:21.304Z,2.40
2018-07-16T14:08:50.904Z,4.27
2018-07-16T14:11:20.523Z,2.57
2018-07-16T14:13:50.160Z,2.40
2018-07-16T14:16:19.529Z,3.10
2018-07-16T14:18:49.134Z,2.70
2018-07-16T14:21:20.138Z,2.67
2018-07-16T14:23:49.748Z,5.07
2018-07-16T14:26:19.392Z,3.40
2018-07-16T14:28:49.029Z,2.87
2018-07-16T14:31:18.926Z,6.13
2018-07-16T14:33:48.582Z,3.23
2018-07-16T14:36:19.114Z,3.53
2018-07-16T14:38:48.968Z,2.40
2018-07-16T14:41:18.570Z,3.17
2018-07-16T14:43:48.278Z,3.40
2018-07-16T14:46:17.861Z,2.50
2018-07-16T14:48:47.625Z,2.97
2018-07-16T14:51:17.976Z,4.80
2018-07-16T14:53:47.631Z,2.53
2018-07-16T14:56:17.276Z,3.70
2018-07-16T14:58:46.857Z,2.57
2018-07-16T15:01:16.503Z,3.50
2018-07-16T15:03:46.747Z,4.53
2018-07-16T15:06:16.574Z,2.87
2018-07-16T15:08:46.244Z,7.73
2018-07-16T15:11:15.893Z,3.40
2018-07-16T15:13:45.541Z,3.50
2018-07-16T15:16:15.165Z,4.97
2018-07-16T15:18:46.033Z,3.03
2018-07-16T15:21:15.976Z,3.90
2018-07-16T15:23:45.692Z,3.10
2018-07-16T15:26:15.469Z,4.20
2018-07-16T15:28:45.844Z,4.13
2018-07-16T15:31:15.585Z,4.30
2018-07-16T15:33:46.040Z,4.20
2018-07-16T15:36:15.752Z,3.30
2018-07-16T15:38:45.583Z,5.67
2018-07-16T15:41:15.240Z,7.73
2018-07-16T15:43:45.510Z,3.17
2018-07-16T15:46:15.194Z,3.33
2018-07-16T15:48:46.205Z,3.27
2018-07-16T15:51:15.988Z,3.13
2018-07-16T15:53:46.013Z,4.30
2018-07-16T15:56:15.592Z,3.77
2018-07-16T15:58:46.068Z,3.77
2018-07-16T16:01:15.804Z,4.87
2018-07-16T16:03:46.478Z,3.93
2018-07-16T16:06:16.060Z,7.80
2018-07-16T16:08:46.711Z,4.07
2018-07-16T16:11:16.335Z,3.77
2018-07-16T16:13:47.043Z,3.97
2018-07-16T16:16:16.749Z,4.67
2018-07-16T16:18:47.140Z,3.23
2018-07-16T16:21:17.078Z,3.10
2018-07-16T16:23:47.632Z,6.13
2018-07-16T16:26:17.369Z,4.97
2018-07-16T16:28:47.684Z,2.87
2018-07-16T16:31:17.744Z,3.50
2018-07-16T16:33:48.389Z,3.73
2018-07-16T16:36:19.002Z,3.70
2018-07-16T16:38:48.804Z,3.43
2018-07-16T16:41:18.572Z,5.07
2018-07-16T16:43:48.671Z,3.43
2018-07-16T16:46:18.554Z,4.17
2018-07-16T16:48:48.962Z,3.73
2018-07-16T16:51:19.179Z,4.97
2018-07-16T16:53:49.597Z,4.87
2018-07-16T16:56:19.193Z,8.50
2018-07-16T16:58:49.359Z,6.90
2018-07-16T17:01:18.993Z,4.87
2018-07-16T17:03:49.528Z,3.57
2018-07-16T17:06:19.645Z,3.47
2018-07-16T17:08:49.936Z,4.93
2018-07-16T17:11:19.584Z,4.87
2018-07-16T17:13:50.531Z,5.87
2018-07-16T17:16:20.178Z,3.37
2018-07-16T17:18:50.521Z,7.27
2018-07-16T17:21:21.236Z,4.77
2018-07-16T17:23:51.234Z,4.43
2018-07-16T17:26:20.794Z,3.77
2018-07-16T17:28:50.809Z,4.10
2018-07-16T17:31:20.438Z,3.60
2018-07-16T17:33:50.986Z,3.50
2018-07-16T17:36:21.569Z,4.67
2018-07-16T17:38:51.840Z,7.87
2018-07-16T17:41:21.420Z,4.63
2018-07-16T17:43:51.661Z,3.87
2018-07-16T17:46:21.203Z,7.00
2018-07-16T17:48:51.492Z,4.07
2018-07-16T17:51:22.120Z,4.33
2018-07-16T17:53:52.039Z,6.70
2018-07-16T17:56:21.681Z,7.63
2018-07-16T17:58:52.669Z,3.73
2018-07-16T18:01:22.352Z,5.87
2018-07-16T18:03:52.964Z,12.27
2018-07-16T18:06:23.211Z,9.37
2018-07-16T18:08:52.991Z,10.07
2018-07-16T18:11:22.980Z,5.33
2018-07-16T18:13:53.283Z,4.30
2018-07-16T18:16:22.907Z,5.90
2018-07-16T18:18:53.326Z,4.27
2018-07-16T18:21:23.519Z,9.93
2018-07-16T18:23:53.969Z,5.13
2018-07-16T18:26:23.566Z,5.43
2018-07-16T18:28:54.198Z,4.57
2018-07-16T18:31:23.815Z,7.07
2018-07-16T18:33:54.463Z,7.20
2018-07-16T18:36:24.493Z,10.50
2018-07-16T18:38:54.889Z,10.03
2018-07-16T18:41:24.540Z,6.33
2018-07-16T18:43:55.188Z,6.70
2018-07-16T18:46:24.435Z,6.90
2018-07-16T18:48:54.927Z,12.43
2018-07-16T18:51:25.056Z,7.90
2018-07-16T18:53:55.617Z,6.23
2018-07-16T18:56:25.325Z,5.73
2018-07-16T18:58:56.093Z,6.80
2018-07-16T19:01:25.362Z,9.67
2018-07-16T19:03:55.759Z,7.53
2018-07-16T19:06:25.581Z,7.97
2018-07-16T19:08:55.932Z,6.20
2018-07-16T19:11:25.532Z,6.00
2018-07-16T19:13:56.249Z,6.57
2018-07-16T19:16:25.835Z,7.47
2018-07-16T19:18:56.379Z,5.27
2018-07-16T19:21:26.032Z,6.67
2018-07-16T19:23:56.290Z,9.40
2018-07-16T19:26:25.902Z,7.57
2018-07-16T19:28:56.205Z,6.70
2018-07-16T19:31:25.841Z,6.40
2018-07-16T19:33:56.084Z,5.33
2018-07-16T19:36:25.966Z,10.70
2018-07-16T19:38:55.769Z,9.37
2018-07-16T19:41:25.344Z,10.27
2018-07-16T19:43:54.999Z,8.10
2018-07-16T19:46:24.659Z,11.97
2018-07-16T19:48:54.281Z,7.63
2018-07-16T19:51:24.773Z,6.93
2018-07-16T19:53:54.428Z,8.13
2018-07-16T19:56:24.058Z,6.40
2018-07-16T19:58:53.619Z,11.37
2018-07-16T20:01:23.211Z,7.27
2018-07-16T20:03:52.873Z,7.10
2018-07-16T20:06:22.866Z,6.17
2018-07-16T20:08:52.513Z,6.37
2018-07-16T20:11:22.137Z,5.87
2018-07-16T20:13:51.749Z,7.47
2018-07-16T20:16:21.364Z,5.27
2018-07-16T20:18:51.029Z,5.83
2018-07-16T20:21:21.408Z,6.00
2018-07-16T20:23:51.043Z,5.63
2018-07-16T20:26:20.744Z,8.67
2018-07-16T20:28:50.462Z,5.50
2018-07-16T20:31:20.188Z,6.63
2018-07-16T20:33:49.899Z,6.10
2018-07-16T20:36:20.267Z,6.97
2018-07-16T20:38:49.894Z,6.40
2018-07-16T20:41:19.598Z,5.13
2018-07-16T20:43:49.316Z,6.20
2018-07-16T20:46:19.010Z,5.00
2018-07-16T20:48:48.653Z,7.77
2018-07-16T20:51:18.513Z,4.90
2018-07-16T20:53:48.131Z,4.90
2018-07-16T20:56:17.732Z,5.77
2018-07-16T20:58:47.544Z,7.53
2018-07-16T21:01:17.181Z,5.90
2018-07-16T21:03:46.821Z,6.00
2018-07-16T21:06:16.474Z,4.80
2018-07-16T21:08:46.224Z,5.17
2018-07-16T21:11:15.855Z,6.77
2018-07-16T21:13:45.521Z,8.57
2018-07-16T21:16:15.173Z,5.93
2018-07-16T21:18:44.977Z,5.00
2018-07-16T21:21:14.787Z,5.73
2018-07-16T21:23:44.441Z,4.83
2018-07-16T21:26:14.125Z,4.53
2018-07-16T21:28:43.853Z,4.30
2018-07-16T21:31:13.249Z,4.00
2018-07-16T21:33:44.016Z,4.10
2018-07-16T21:36:13.782Z,4.43
2018-07-16T21:38:43.350Z,8.20
2018-07-16T21:41:13.045Z,4.83
2018-07-16T21:43:42.685Z,5.80
2018-07-16T21:46:12.348Z,3.37
2018-07-16T21:48:43.411Z,3.20
2018-07-16T21:51:13.891Z,3.93
2018-07-16T21:53:43.535Z,4.40
2018-07-16T21:56:13.223Z,4.03
2018-07-16T21:58:42.879Z,3.80
2018-07-16T22:01:13.083Z,4.97
2018-07-16T22:03:43.447Z,4.30
2018-07-16T22:06:13.230Z,4.70
2018-07-16T22:08:42.982Z,4.23
2018-07-16T22:11:12.800Z,6.60
2018-07-16T22:13:42.424Z,4.37
2018-07-16T22:16:13.231Z,4.40
2018-07-16T22:18:43.984Z,6.77
2018-07-16T22:21:13.617Z,5.83
2018-07-16T22:23:43.185Z,8.07
2018-07-16T22:26:12.893Z,7.63
2018-07-16T22:28:42.478Z,5.97
2018-07-16T22:31:12.085Z,7.53
2018-07-16T22:33:42.939Z,8.30
2018-07-16T22:36:12.596Z,6.60
2018-07-16T22:38:42.218Z,7.07
2018-07-16T22:41:12.235Z,5.47
2018-07-16T22:43:41.795Z,5.33
2018-07-16T22:46:11.812Z,6.30
2018-07-16T22:48:42.283Z,6.37
2018-07-16T22:51:12.783Z,6.50
2018-07-16T22:53:42.332Z,4.70
2018-07-16T22:56:12.415Z,5.73
2018-07-16T22:58:42.047Z,7.13
2018-07-16T23:01:12.084Z,7.17
2018-07-16T23:03:42.989Z,6.83
2018-07-16T23:06:12.994Z,13.10
2018-07-16T23:08:42.623Z,6.67
2018-07-16T23:11:13.146Z,7.10
2018-07-16T23:13:42.744Z,8.27
2018-07-16T23:16:12.628Z,10.50
2018-07-16T23:18:43.412Z,6.23
2018-07-16T23:21:13.590Z,6.83
2018-07-16T23:23:43.239Z,5.53
2018-07-16T23:26:13.807Z,5.67
2018-07-16T23:28:43.439Z,5.13
2018-07-16T23:31:13.479Z,8.03
2018-07-16T23:33:43.929Z,6.73
2018-07-16T23:36:14.225Z,5.53
2018-07-16T23:38:43.835Z,6.27
2018-07-16T23:41:13.959Z,7.93
2018-07-16T23:43:43.640Z,6.63
2018-07-16T23:46:14.094Z,7.73
2018-07-16T23:48:44.432Z,5.63
2018-07-16T23:51:14.540Z,6.57
2018-07-16T23:53:44.204Z,5.30
2018-07-16T23:56:13.880Z,8.30
2018-07-16T23:58:43.492Z,7.73
